createdAt,value
2022-12-13T00:01:22.544Z,65.35
2022-12-13T00:03:49.375Z,65.20
2022-12-13T00:06:16.111Z,62.95
2022-12-13T00:08:42.810Z,63.26
2022-12-13T00:11:12.893Z,63.53
2022-12-13T00:13:41.707Z,64.18
2022-12-13T00:16:12.108Z,64.06
2022-12-13T00:18:39.046Z,65.70
2022-12-13T00:21:12.802Z,64.91
2022-12-13T00:23:39.609Z,64.12
2022-12-13T00:26:10.351Z,63.69
2022-12-13T00:28:37.679Z,64.96
2022-12-13T00:31:27.341Z,65.52
2022-12-13T00:33:51.296Z,65.21
2022-12-13T00:36:18.493Z,64.58
2022-12-13T00:38:45.731Z,64.89
2022-12-13T00:41:19.831Z,64.06
2022-12-13T00:43:47.156Z,64.70
2022-12-13T00:46:15.803Z,64.41
2022-12-13T00:48:43.885Z,64.39
2022-12-13T00:51:12.350Z,64.49
2022-12-13T00:53:39.005Z,63.99
2022-12-13T00:56:11.936Z,64.09
2022-12-13T00:58:39.278Z,63.32
2022-12-13T01:01:08.553Z,63.79
2022-12-13T01:03:35.899Z,63.71
2022-12-13T01:06:16.462Z,63.51
2022-12-13T01:08:44.146Z,62.69
2022-12-13T01:11:12.218Z,63.87
2022-12-13T01:13:39.707Z,63.37
2022-12-13T01:16:09.094Z,63.31
2022-12-13T01:18:36.874Z,65.05
2022-12-13T01:21:22.284Z,64.64
2022-12-13T01:23:49.607Z,64.28
2022-12-13T01:26:20.145Z,64.75
2022-12-13T01:28:47.571Z,64.86
2022-12-13T01:31:17.130Z,63.97
2022-12-13T01:33:43.902Z,63.81
2022-12-13T01:36:16.004Z,62.40
2022-12-13T01:38:42.857Z,63.79
2022-12-13T01:41:17.445Z,64.72
2022-12-13T01:43:44.556Z,64.25
2022-12-13T01:46:12.346Z,62.69
2022-12-13T01:48:46.295Z,62.08
2022-12-13T01:51:15.897Z,61.62
2022-12-13T01:53:44.354Z,63.06
2022-12-13T01:56:18.132Z,66.05
2022-12-13T01:58:46.572Z,64.97
2022-12-13T02:01:14.480Z,65.97
2022-12-13T02:03:41.101Z,66.61
2022-12-13T02:06:16.674Z,65.58
2022-12-13T02:08:44.791Z,64.04
2022-12-13T02:11:11.918Z,64.75
2022-12-13T02:13:38.602Z,64.94
2022-12-13T02:16:52.961Z,64.18
2022-12-13T02:19:42.128Z,63.40
2022-12-13T02:22:27.773Z,63.30
2022-12-13T02:25:23.057Z,63.64
2022-12-13T02:28:30.314Z,65.19
2022-12-13T02:31:10.554Z,65.98
2022-12-13T02:33:46.105Z,65.96
2022-12-13T02:36:27.897Z,64.35
2022-12-13T02:39:30.558Z,64.79
2022-12-13T02:42:05.932Z,64.37
2022-12-13T02:44:41.318Z,65.52
2022-12-13T02:47:22.183Z,66.03
2022-12-13T02:49:57.347Z,65.01
2022-12-13T02:52:27.532Z,64.97
2022-12-13T02:54:55.846Z,64.98
2022-12-13T02:57:40.521Z,63.84
2022-12-13T03:00:12.386Z,63.79
2022-12-13T03:02:45.138Z,64.59
2022-12-13T03:06:19.726Z,63.47
2022-12-13T03:09:10.728Z,63.32
2022-12-13T03:12:16.354Z,65.21
2022-12-13T03:14:56.351Z,63.21
2022-12-13T03:17:26.173Z,62.67
2022-12-13T03:19:54.469Z,62.94
2022-12-13T03:22:21.193Z,62.63
2022-12-13T03:24:47.835Z,62.42
2022-12-13T03:27:14.483Z,61.75
2022-12-13T03:29:41.625Z,61.44
2022-12-13T03:32:08.244Z,61.10
2022-12-13T03:34:44.812Z,62.07
2022-12-13T03:37:12.632Z,61.91
2022-12-13T03:39:39.461Z,61.49
2022-12-13T03:42:06.441Z,61.05
2022-12-13T03:44:33.315Z,61.13
2022-12-13T03:47:00.849Z,60.44
2022-12-13T03:49:27.719Z,60.58
2022-12-13T03:52:02.308Z,60.02
2022-12-13T03:54:28.888Z,59.60
2022-12-13T03:56:55.626Z,58.52
2022-12-13T03:59:22.196Z,58.25
2022-12-13T04:01:48.875Z,57.94
2022-12-13T04:04:15.536Z,56.67
2022-12-13T04:06:42.137Z,57.08
2022-12-13T04:09:08.784Z,58.27
2022-12-13T04:11:53.824Z,57.44
2022-12-13T04:14:21.873Z,56.82
2022-12-13T04:16:50.262Z,56.38
2022-12-13T04:19:23.030Z,56.57
2022-12-13T04:21:50.379Z,57.93
2022-12-13T04:24:18.832Z,58.86
2022-12-13T04:26:45.507Z,59.02
2022-12-13T04:29:15.385Z,59.42
2022-12-13T04:31:42.240Z,59.48
2022-12-13T04:34:09.020Z,60.14
2022-12-13T04:36:35.569Z,61.21
2022-12-13T04:39:03.745Z,62.61
2022-12-13T04:41:50.049Z,63.42
2022-12-13T04:44:27.892Z,62.49
2022-12-13T04:47:01.031Z,62.60
2022-12-13T04:49:31.262Z,62.16
2022-12-13T04:52:01.150Z,62.02
2022-12-13T04:54:35.712Z,61.27
2022-12-13T04:57:06.451Z,60.81
2022-12-13T04:59:33.069Z,61.48
2022-12-13T05:01:59.683Z,61.35
2022-12-13T05:04:32.146Z,60.86
2022-12-13T05:06:59.453Z,60.40
2022-12-13T05:09:26.150Z,61.02
2022-12-13T05:11:52.731Z,60.95
2022-12-13T05:14:28.157Z,60.99
2022-12-13T05:16:54.869Z,60.41
2022-12-13T05:19:21.581Z,60.02
2022-12-13T05:21:57.786Z,59.70
2022-12-13T05:24:28.196Z,59.52
2022-12-13T05:26:54.775Z,60.13
2022-12-13T05:29:26.181Z,59.53
2022-12-13T05:31:52.814Z,60.52
2022-12-13T05:34:19.444Z,60.32
2022-12-13T05:36:46.001Z,60.63
2022-12-13T05:39:28.526Z,60.52
2022-12-13T05:42:02.269Z,60.67
2022-12-13T05:44:30.543Z,60.43
2022-12-13T05:46:57.137Z,59.50
2022-12-13T05:49:23.789Z,58.71
2022-12-13T05:51:50.453Z,59.20
2022-12-13T05:54:17.235Z,59.17
2022-12-13T05:56:43.868Z,59.40
2022-12-13T05:59:10.470Z,59.30
2022-12-13T06:01:37.112Z,59.90
2022-12-13T06:04:10.488Z,60.11
2022-12-13T06:06:37.586Z,59.55
2022-12-13T06:09:04.393Z,60.80
2022-12-13T06:11:32.439Z,62.01
2022-12-13T06:14:01.042Z,61.95
2022-12-13T06:16:28.272Z,62.26
2022-12-13T06:19:03.236Z,61.69
2022-12-13T06:21:41.200Z,62.84
2022-12-13T06:24:12.962Z,62.47
2022-12-13T06:26:39.549Z,62.92
2022-12-13T06:29:06.207Z,64.14
2022-12-13T06:31:32.818Z,65.09
2022-12-13T06:34:14.961Z,64.65
2022-12-13T06:36:42.357Z,64.47
2022-12-13T06:39:08.939Z,64.15
2022-12-13T06:41:36.434Z,63.91
2022-12-13T06:44:03.094Z,63.43
2022-12-13T06:46:29.768Z,64.21
2022-12-13T06:48:57.040Z,63.23
2022-12-13T06:51:33.041Z,62.41
2022-12-13T06:54:01.908Z,62.43
2022-12-13T06:56:29.314Z,62.70
2022-12-13T06:59:01.423Z,62.51
2022-12-13T07:01:37.391Z,61.25
2022-12-13T07:04:29.539Z,61.13
2022-12-13T07:06:54.069Z,62.34
2022-12-13T07:09:21.888Z,63.17
2022-12-13T07:11:51.932Z,62.56
2022-12-13T07:14:19.090Z,62.76
2022-12-13T07:16:45.804Z,62.00
2022-12-13T07:19:23.760Z,61.03
2022-12-13T07:21:54.627Z,61.20
2022-12-13T07:24:28.068Z,61.04
2022-12-13T07:26:57.613Z,60.83
2022-12-13T07:29:24.274Z,61.72
2022-12-13T07:32:00.997Z,61.32
2022-12-13T07:34:28.613Z,61.70
2022-12-13T07:36:55.524Z,61.07
2022-12-13T07:39:25.961Z,62.26
2022-12-13T07:41:57.415Z,62.83
2022-12-13T07:44:27.239Z,62.25
2022-12-13T07:46:54.128Z,61.83
2022-12-13T07:49:20.854Z,63.50
2022-12-13T07:51:47.710Z,63.13
2022-12-13T07:54:14.415Z,63.88
2022-12-13T07:56:41.068Z,61.52
2022-12-13T07:59:08.903Z,63.37
2022-12-13T08:01:35.753Z,62.69
2022-12-13T08:04:06.082Z,62.29
2022-12-13T08:06:37.883Z,63.04
2022-12-13T08:09:05.848Z,62.86
2022-12-13T08:11:32.748Z,62.77
2022-12-13T08:13:59.717Z,64.56
2022-12-13T08:16:29.366Z,65.33
2022-12-13T08:19:01.058Z,64.50
2022-12-13T08:24:20.445Z,62.57
2022-12-13T08:26:47.269Z,63.41
2022-12-13T08:29:13.831Z,62.86
2022-12-13T08:31:50.347Z,63.13
2022-12-13T08:34:16.955Z,62.01
2022-12-13T08:36:43.505Z,60.79
2022-12-13T08:39:10.118Z,60.25
2022-12-13T08:41:39.294Z,60.16
2022-12-13T08:44:06.432Z,58.67
2022-12-13T08:46:33.565Z,59.34
2022-12-13T08:49:00.268Z,59.11
2022-12-13T08:51:29.658Z,59.64
2022-12-13T08:54:11.061Z,58.71
2022-12-13T08:56:38.420Z,59.22
2022-12-13T08:59:05.255Z,58.15
2022-12-13T09:01:31.910Z,57.54
2022-12-13T09:03:58.571Z,58.46
2022-12-13T09:06:25.189Z,59.51
2022-12-13T09:08:54.019Z,58.68
2022-12-13T09:11:33.183Z,58.54
2022-12-13T09:14:02.006Z,58.77
2022-12-13T09:16:35.756Z,57.22
2022-12-13T09:19:06.553Z,57.71
2022-12-13T09:21:51.951Z,57.03
2022-12-13T09:24:24.143Z,57.49
2022-12-13T09:26:57.217Z,57.66
2022-12-13T09:29:27.205Z,56.68
2022-12-13T09:31:54.013Z,53.03
2022-12-13T09:34:20.745Z,53.41
2022-12-13T09:36:47.399Z,54.45
2022-12-13T09:39:14.016Z,54.23
2022-12-13T09:42:00.814Z,53.78
2022-12-13T09:44:42.720Z,52.85
2022-12-13T09:47:22.965Z,52.43
2022-12-13T09:49:52.644Z,52.19
2022-12-13T09:52:23.770Z,52.16
2022-12-13T09:54:54.332Z,54.51
2022-12-13T09:57:32.932Z,49.48
2022-12-13T10:00:13.398Z,51.53
2022-12-13T10:02:55.335Z,50.71
2022-12-13T10:05:35.750Z,49.16
2022-12-13T10:08:35.592Z,50.29
2022-12-13T10:11:03.504Z,50.55
2022-12-13T10:13:38.781Z,51.00
2022-12-13T10:16:12.694Z,51.17
2022-12-13T10:18:42.072Z,50.01
2022-12-13T10:21:24.142Z,51.04
2022-12-13T10:24:23.732Z,52.05
2022-12-13T10:26:39.082Z,53.14
2022-12-13T10:29:06.955Z,53.63
2022-12-13T10:31:42.363Z,53.72
2022-12-13T10:34:35.585Z,52.36
2022-12-13T10:37:30.683Z,53.97
2022-12-13T10:39:58.804Z,53.00
2022-12-13T10:42:32.142Z,52.52
2022-12-13T10:45:15.264Z,52.84
2022-12-13T10:47:44.481Z,52.82
2022-12-13T10:50:24.490Z,54.56
2022-12-13T10:52:51.682Z,54.58
2022-12-13T10:55:32.276Z,50.83
2022-12-13T10:58:18.251Z,50.54
2022-12-13T11:00:47.221Z,52.36
2022-12-13T11:03:30.906Z,52.18
2022-12-13T11:06:13.772Z,51.88
2022-12-13T11:08:40.506Z,54.07
2022-12-13T11:11:09.477Z,53.18
2022-12-13T11:13:44.983Z,53.01
2022-12-13T11:16:26.900Z,53.76
2022-12-13T11:18:57.559Z,53.20
2022-12-13T11:21:33.292Z,51.28
2022-12-13T11:24:03.749Z,51.01
2022-12-13T11:26:34.507Z,52.05
2022-12-13T11:29:06.915Z,50.29
2022-12-13T11:31:47.287Z,50.40
2022-12-13T11:34:35.392Z,50.80
2022-12-13T11:37:19.458Z,50.29
2022-12-13T11:40:06.651Z,54.11
2022-12-13T11:42:41.356Z,53.90
2022-12-13T11:45:22.825Z,52.87
2022-12-13T11:48:00.394Z,54.54
2022-12-13T11:50:34.720Z,53.75
2022-12-13T11:53:41.142Z,54.68
2022-12-13T11:56:31.780Z,50.69
2022-12-13T11:59:26.348Z,52.44
2022-12-13T12:02:16.408Z,53.07
2022-12-13T12:04:56.643Z,53.17
2022-12-13T12:07:48.289Z,52.74
2022-12-13T12:10:47.488Z,52.38
2022-12-13T12:13:29.928Z,53.93
2022-12-13T12:16:30.895Z,52.92
2022-12-13T12:19:01.447Z,54.19
2022-12-13T12:22:18.900Z,53.43
2022-12-13T12:25:04.148Z,54.02
2022-12-13T12:28:00.552Z,53.28
2022-12-13T12:30:53.931Z,52.96
2022-12-13T12:33:52.266Z,52.84
2022-12-13T12:36:56.474Z,50.97
2022-12-13T12:39:43.237Z,51.85
2022-12-13T12:42:25.087Z,52.39
2022-12-13T12:45:27.021Z,51.61
2022-12-13T12:48:58.497Z,53.37
2022-12-13T12:51:38.095Z,54.67
2022-12-13T12:54:16.693Z,54.54
2022-12-13T12:56:58.784Z,54.08
2022-12-13T12:59:45.902Z,53.13
2022-12-13T13:02:31.324Z,53.95
2022-12-13T13:05:19.706Z,54.11
2022-12-13T13:08:05.948Z,53.43
2022-12-13T13:10:33.241Z,53.49
2022-12-13T13:13:12.187Z,53.29
2022-12-13T13:15:39.854Z,52.91
2022-12-13T13:18:53.059Z,52.42
2022-12-13T13:21:33.786Z,54.72
2022-12-13T13:24:10.003Z,53.79
2022-12-13T13:26:42.838Z,52.00
2022-12-13T13:29:27.054Z,52.59
2022-12-13T13:32:02.259Z,53.46
2022-12-13T13:34:33.254Z,53.81
2022-12-13T13:37:04.531Z,55.01
2022-12-13T13:39:31.087Z,55.06
2022-12-13T13:42:21.841Z,54.12
2022-12-13T13:44:48.558Z,55.19
2022-12-13T13:47:16.616Z,54.38
2022-12-13T13:50:11.201Z,54.48
2022-12-13T13:53:12.372Z,54.01
2022-12-13T13:56:13.127Z,52.39
2022-12-13T13:59:13.803Z,52.26
2022-12-13T14:02:17.586Z,52.47
2022-12-13T14:05:08.841Z,52.12
2022-12-13T14:07:53.406Z,52.45
2022-12-13T14:10:47.131Z,53.38
2022-12-13T14:13:48.783Z,55.94
2022-12-13T14:16:24.429Z,55.21
2022-12-13T14:19:28.730Z,53.32
2022-12-13T14:22:07.019Z,54.56
2022-12-13T14:24:51.787Z,54.12
2022-12-13T14:27:27.156Z,54.24
2022-12-13T14:29:58.273Z,54.13
2022-12-13T14:32:27.680Z,53.24
2022-12-13T14:34:59.627Z,54.94
2022-12-13T14:37:59.882Z,53.38
2022-12-13T14:40:28.801Z,55.39
2022-12-13T14:43:00.771Z,56.71
2022-12-13T14:45:29.737Z,57.41
2022-12-13T14:48:16.217Z,56.74
2022-12-13T14:50:55.919Z,57.75
2022-12-13T14:53:41.868Z,57.51
2022-12-13T14:56:27.401Z,58.13
2022-12-13T14:59:15.508Z,58.90
2022-12-13T15:01:43.189Z,60.21
2022-12-13T15:04:22.058Z,59.96
2022-12-13T15:06:55.409Z,60.73
2022-12-13T15:09:23.672Z,61.22
2022-12-13T15:12:01.393Z,61.23
2022-12-13T15:14:51.095Z,60.89
2022-12-13T15:17:39.791Z,61.57
2022-12-13T15:20:23.672Z,60.83
2022-12-13T15:22:58.831Z,61.18
2022-12-13T15:25:25.793Z,63.54
2022-12-13T15:27:55.094Z,62.80
2022-12-13T15:30:21.925Z,61.70
2022-12-13T15:33:17.822Z,60.73
2022-12-13T15:35:48.036Z,60.12
2022-12-13T15:38:28.715Z,60.11
2022-12-13T15:40:56.436Z,59.76
2022-12-13T15:43:31.480Z,59.26
2022-12-13T15:45:58.293Z,58.84
2022-12-13T15:48:29.377Z,58.64
2022-12-13T15:51:29.382Z,57.63
2022-12-13T15:54:19.927Z,58.09
2022-12-13T15:57:21.686Z,59.27
2022-12-13T15:59:48.867Z,59.45
2022-12-13T16:02:25.495Z,59.17
2022-12-13T16:04:52.419Z,59.34
2022-12-13T16:07:38.052Z,59.31
2022-12-13T16:10:06.865Z,59.53
2022-12-13T16:12:47.859Z,58.63
2022-12-13T16:15:28.836Z,60.41
2022-12-13T16:18:07.256Z,61.26
2022-12-13T16:20:34.602Z,61.19
2022-12-13T16:23:01.218Z,60.72
2022-12-13T16:25:36.060Z,60.37
2022-12-13T16:28:05.374Z,60.38
2022-12-13T16:31:13.433Z,60.79
2022-12-13T16:33:40.087Z,61.50
2022-12-13T16:36:08.602Z,61.22
2022-12-13T16:38:35.224Z,60.70
2022-12-13T16:41:08.961Z,60.67
2022-12-13T16:43:42.828Z,60.24
2022-12-13T16:47:10.000Z,60.80
2022-12-13T16:49:02.126Z,61.20
2022-12-13T16:51:28.733Z,61.10
2022-12-13T16:53:55.417Z,61.61
2022-12-13T16:56:22.071Z,61.16
2022-12-13T16:58:50.516Z,60.54
2022-12-13T17:01:20.954Z,61.85
2022-12-13T17:03:48.230Z,61.14
2022-12-13T17:06:20.390Z,59.34
2022-12-13T17:08:47.007Z,59.79
2022-12-13T17:11:18.010Z,60.00
2022-12-13T17:13:49.844Z,60.73
2022-12-13T17:16:16.584Z,61.31
2022-12-13T17:18:43.374Z,60.63
2022-12-13T17:21:11.014Z,61.16
2022-12-13T17:23:38.001Z,61.01
2022-12-13T17:26:06.934Z,61.46
2022-12-13T17:28:34.207Z,61.38
2022-12-13T17:31:09.149Z,61.57
2022-12-13T17:33:38.678Z,61.64
2022-12-13T17:36:06.755Z,61.67
2022-12-13T17:38:33.401Z,61.28
2022-12-13T17:41:00.838Z,59.82
2022-12-13T17:43:34.524Z,60.02
2022-12-13T17:46:02.733Z,59.37
2022-12-13T17:48:39.044Z,58.30
2022-12-13T17:51:08.595Z,58.95
2022-12-13T17:53:36.108Z,59.36
2022-12-13T17:56:06.600Z,60.48
2022-12-13T17:58:34.179Z,60.47
2022-12-13T18:01:20.056Z,61.19
2022-12-13T18:03:49.033Z,64.15
2022-12-13T18:06:19.140Z,64.47
2022-12-13T18:08:46.888Z,63.96
2022-12-13T18:14:03.747Z,62.81
2022-12-13T18:16:58.842Z,61.73
2022-12-13T18:19:32.105Z,61.92
2022-12-13T18:21:59.854Z,63.84
2022-12-13T18:24:26.460Z,64.33
2022-12-13T18:27:12.124Z,64.75
2022-12-13T18:29:42.815Z,63.33
2022-12-13T18:32:21.897Z,63.61
2022-12-13T18:34:54.763Z,63.12
2022-12-13T18:37:26.173Z,62.84
2022-12-13T18:39:54.586Z,62.70
2022-12-13T18:42:21.823Z,60.52
2022-12-13T18:44:54.106Z,61.08
2022-12-13T18:47:21.697Z,61.29
2022-12-13T18:49:54.764Z,62.37
2022-12-13T18:52:23.954Z,61.92
2022-12-13T18:54:54.557Z,61.35
2022-12-13T18:57:21.758Z,60.36
2022-12-13T18:59:54.556Z,61.70
2022-12-13T19:02:31.073Z,62.07
2022-12-13T19:05:01.059Z,61.82
2022-12-13T19:07:30.069Z,61.99
2022-12-13T19:09:59.431Z,61.24
2022-12-13T19:12:26.189Z,61.50
2022-12-13T19:14:54.734Z,61.25
2022-12-13T19:17:22.088Z,61.55
2022-12-13T19:19:48.964Z,61.23
2022-12-13T19:22:18.389Z,61.08
2022-12-13T19:24:47.923Z,61.87
2022-12-13T19:27:15.262Z,60.87
2022-12-13T19:29:44.298Z,61.52
2022-12-13T19:32:11.350Z,60.22
2022-12-13T19:34:39.849Z,59.95
2022-12-13T19:37:09.423Z,59.21
2022-12-13T19:39:36.100Z,59.76
2022-12-13T19:42:02.753Z,61.08
2022-12-13T19:44:29.348Z,61.11
2022-12-13T19:46:56.250Z,60.68
2022-12-13T19:49:22.934Z,60.94
2022-12-13T19:51:49.613Z,61.24
2022-12-13T19:54:16.188Z,61.00
2022-12-13T19:56:42.829Z,60.62
2022-12-13T19:59:09.436Z,61.13
2022-12-13T20:01:36.166Z,60.82
2022-12-13T20:04:02.876Z,61.88
2022-12-13T20:06:30.222Z,62.43
2022-12-13T20:08:56.850Z,62.96
2022-12-13T20:11:23.651Z,62.51
2022-12-13T20:13:54.590Z,61.27
2022-12-13T20:16:24.640Z,60.50
2022-12-13T20:18:59.659Z,60.64
2022-12-13T20:21:28.677Z,59.44
2022-12-13T20:23:55.727Z,59.27
2022-12-13T20:26:25.009Z,58.27
2022-12-13T20:28:52.018Z,59.15
2022-12-13T20:31:21.424Z,58.31
2022-12-13T20:33:48.249Z,58.10
2022-12-13T20:36:24.569Z,58.74
2022-12-13T20:38:52.909Z,59.65
2022-12-13T20:41:19.626Z,60.77
2022-12-13T20:43:48.482Z,60.53
2022-12-13T20:46:15.692Z,60.67
2022-12-13T20:48:44.414Z,62.40
2022-12-13T20:51:13.619Z,61.84
2022-12-13T20:53:43.427Z,62.54
2022-12-13T20:56:13.298Z,62.25
2022-12-13T20:58:41.878Z,62.56
2022-12-13T21:01:15.539Z,62.52
2022-12-13T21:03:42.291Z,61.53
2022-12-13T21:06:09.005Z,62.66
2022-12-13T21:08:54.065Z,61.80
2022-12-13T21:11:25.074Z,61.21
2022-12-13T21:13:53.307Z,61.75
2022-12-13T21:16:20.814Z,60.61
2022-12-13T21:18:48.270Z,60.89
2022-12-13T21:21:15.113Z,60.38
2022-12-13T21:23:41.687Z,61.17
2022-12-13T21:26:08.459Z,61.58
2022-12-13T21:28:35.186Z,62.32
2022-12-13T21:31:07.896Z,62.89
2022-12-13T21:33:36.777Z,62.81
2022-12-13T21:36:42.715Z,61.60
2022-12-13T21:39:22.597Z,60.94
2022-12-13T21:41:49.379Z,61.70
2022-12-13T21:44:17.766Z,62.17
2022-12-13T21:49:31.136Z,62.81
2022-12-13T21:51:57.684Z,62.04
2022-12-13T21:54:24.547Z,61.36
2022-12-13T21:57:09.890Z,61.50
2022-12-13T21:59:36.487Z,60.85
2022-12-13T22:02:20.547Z,61.03
2022-12-13T22:04:50.686Z,61.95
2022-12-13T22:07:32.018Z,63.15
2022-12-13T22:10:00.180Z,62.38
2022-12-13T22:12:31.455Z,62.33
2022-12-13T22:14:58.315Z,61.86
2022-12-13T22:17:33.106Z,60.93
2022-12-13T22:20:02.700Z,62.07
2022-12-13T22:22:29.383Z,61.49
2022-12-13T22:24:56.090Z,60.67
2022-12-13T22:27:26.055Z,60.69
2022-12-13T22:29:57.076Z,61.27
2022-12-13T22:32:27.168Z,62.41
2022-12-13T22:34:54.226Z,63.24
2022-12-13T22:37:21.000Z,63.41
2022-12-13T22:39:47.672Z,63.78
2022-12-13T22:42:14.376Z,64.08
2022-12-13T22:44:40.978Z,63.95
2022-12-13T22:47:07.605Z,63.97
2022-12-13T22:49:34.259Z,63.65
2022-12-13T22:52:00.907Z,63.37
2022-12-13T22:54:27.540Z,63.69
2022-12-13T22:56:54.350Z,63.29
2022-12-13T22:59:20.938Z,64.46
2022-12-13T23:01:47.779Z,63.43
2022-12-13T23:04:15.396Z,62.53
2022-12-13T23:06:42.101Z,62.98
2022-12-13T23:09:12.090Z,63.56
2022-12-13T23:11:57.365Z,64.68
2022-12-13T23:14:32.565Z,64.35
2022-12-13T23:17:00.462Z,64.53
2022-12-13T23:19:49.678Z,63.16
2022-12-13T23:22:14.564Z,63.73
2022-12-13T23:24:41.154Z,62.99
2022-12-13T23:27:07.922Z,63.03
2022-12-13T23:29:34.489Z,63.20
2022-12-13T23:32:01.105Z,63.63
2022-12-13T23:34:27.680Z,62.75
2022-12-13T23:36:54.334Z,63.51
2022-12-13T23:39:20.949Z,64.25
2022-12-13T23:41:47.560Z,63.33
2022-12-13T23:44:14.202Z,62.91
2022-12-13T23:46:40.866Z,64.21
2022-12-13T23:49:09.415Z,64.20
2022-12-13T23:51:37.895Z,63.41
2022-12-13T23:54:07.701Z,63.01
2022-12-13T23:56:34.331Z,64.17
2022-12-13T23:59:00.953Z,64.07
